sensor_id;sensor_type;location;lat;lon;timestamp;temperature;humidity
42421;DHT22;28063;48.140;11.588;2022-08-21T00:01:54;16.70;99.90
42421;DHT22;28063;48.140;11.588;2022-08-21T00:04:21;16.70;99.90
42421;DHT22;28063;48.140;11.588;2022-08-21T00:06:46;16.60;99.90
42421;DHT22;28063;48.140;11.588;2022-08-21T00:09:12;16.60;99.90
42421;DHT22;28063;48.140;11.588;2022-08-21T00:11:39;16.60;99.90
42421;DHT22;28063;48.140;11.588;2022-08-21T00:14:07;16.60;99.90
42421;DHT22;28063;48.140;11.588;2022-08-21T00:16:33;16.50;99.90
42421;DHT22;28063;48.140;11.588;2022-08-21T00:18:58;16.50;99.90
42421;DHT22;28063;48.140;11.588;2022-08-21T00:21:24;16.50;99.90
42421;DHT22;28063;48.140;11.588;2022-08-21T00:23:50;16.40;99.90
42421;DHT22;28063;48.140;11.588;2022-08-21T00:26:16;16.40;99.90
42421;DHT22;28063;48.140;11.588;2022-08-21T00:28:42;16.30;99.90
42421;DHT22;28063;48.140;11.588;2022-08-21T00:31:09;16.30;99.90
42421;DHT22;28063;48.140;11.588;2022-08-21T00:33:34;16.30;99.90
42421;DHT22;28063;48.140;11.588;2022-08-21T00:36:01;16.30;99.90
42421;DHT22;28063;48.140;11.588;2022-08-21T00:38:26;16.30;99.90
42421;DHT22;28063;48.140;11.588;2022-08-21T00:40:55;16.30;99.90
42421;DHT22;28063;48.140;11.588;2022-08-21T00:43:27;16.30;99.90
42421;DHT22;28063;48.140;11.588;2022-08-21T00:45:53;16.40;99.90
42421;DHT22;28063;48.140;11.588;2022-08-21T00:48:20;16.40;99.90
42421;DHT22;28063;48.140;11.588;2022-08-21T00:50:54;16.40;99.90
42421;DHT22;28063;48.140;11.588;2022-08-21T00:53:20;16.30;99.90
42421;DHT22;28063;48.140;11.588;2022-08-21T00:55:46;16.30;99.90
42421;DHT22;28063;48.140;11.588;2022-08-21T00:58:13;16.20;99.90
42421;DHT22;28063;48.140;11.588;2022-08-21T01:00:42;16.20;99.90
42421;DHT22;28063;48.140;11.588;2022-08-21T01:03:13;16.20;99.90
42421;DHT22;28063;48.140;11.588;2022-08-21T01:05:39;16.20;99.90
42421;DHT22;28063;48.140;11.588;2022-08-21T01:08:06;16.10;99.90
42421;DHT22;28063;48.140;11.588;2022-08-21T01:10:33;16.10;99.90
42421;DHT22;28063;48.140;11.588;2022-08-21T01:13:00;16.00;99.90
42421;DHT22;28063;48.140;11.588;2022-08-21T01:15:30;16.00;99.90
42421;DHT22;28063;48.140;11.588;2022-08-21T01:17:57;16.00;99.90
42421;DHT22;28063;48.140;11.588;2022-08-21T01:20:23;15.90;99.90
42421;DHT22;28063;48.140;11.588;2022-08-21T01:22:49;15.90;99.90
42421;DHT22;28063;48.140;11.588;2022-08-21T01:25:17;15.90;99.90
42421;DHT22;28063;48.140;11.588;2022-08-21T01:27:45;15.90;99.90
42421;DHT22;28063;48.140;11.588;2022-08-21T01:30:18;15.80;99.90
42421;DHT22;28063;48.140;11.588;2022-08-21T01:36:07;15.80;99.90
42421;DHT22;28063;48.140;11.588;2022-08-21T01:38:36;15.80;99.90
42421;DHT22;28063;48.140;11.588;2022-08-21T01:41:41;15.80;99.90
42421;DHT22;28063;48.140;11.588;2022-08-21T01:47:41;15.80;99.90
42421;DHT22;28063;48.140;11.588;2022-08-21T01:50:10;15.80;99.90
42421;DHT22;28063;48.140;11.588;2022-08-21T01:52:36;15.70;99.90
42421;DHT22;28063;48.140;11.588;2022-08-21T01:55:04;15.70;99.90
42421;DHT22;28063;48.140;11.588;2022-08-21T01:57:31;15.70;99.90
42421;DHT22;28063;48.140;11.588;2022-08-21T02:10:31;15.60;99.90
42421;DHT22;28063;48.140;11.588;2022-08-21T02:12:58;15.60;99.90
42421;DHT22;28063;48.140;11.588;2022-08-21T02:18:59;15.60;99.90
42421;DHT22;28063;48.140;11.588;2022-08-21T02:24:34;15.60;99.90
42421;DHT22;28063;48.140;11.588;2022-08-21T02:27:07;15.50;99.90
42421;DHT22;28063;48.140;11.588;2022-08-21T02:29:45;15.50;99.90
42421;DHT22;28063;48.140;11.588;2022-08-21T02:32:10;15.50;99.90
42421;DHT22;28063;48.140;11.588;2022-08-21T02:34:42;15.50;99.90
42421;DHT22;28063;48.140;11.588;2022-08-21T02:37:08;15.50;99.90
42421;DHT22;28063;48.140;11.588;2022-08-21T02:39:34;15.50;99.90
42421;DHT22;28063;48.140;11.588;2022-08-21T02:42:02;15.40;99.90
42421;DHT22;28063;48.140;11.588;2022-08-21T02:44:27;15.40;99.90
42421;DHT22;28063;48.140;11.588;2022-08-21T02:46:53;15.40;99.90
42421;DHT22;28063;48.140;11.588;2022-08-21T02:49:18;15.40;99.90
42421;DHT22;28063;48.140;11.588;2022-08-21T02:51:44;15.40;99.90
42421;DHT22;28063;48.140;11.588;2022-08-21T02:54:10;15.40;99.90
42421;DHT22;28063;48.140;11.588;2022-08-21T02:56:35;15.40;99.90
42421;DHT22;28063;48.140;11.588;2022-08-21T03:09:08;15.40;99.90
42421;DHT22;28063;48.140;11.588;2022-08-21T03:15:20;15.40;99.90
42421;DHT22;28063;48.140;11.588;2022-08-21T03:18:01;15.30;99.90
42421;DHT22;28063;48.140;11.588;2022-08-21T03:20:29;15.40;99.90
42421;DHT22;28063;48.140;11.588;2022-08-21T03:22:56;15.40;99.90
42421;DHT22;28063;48.140;11.588;2022-08-21T03:25:23;15.30;99.90
42421;DHT22;28063;48.140;11.588;2022-08-21T03:27:50;15.30;99.90
42421;DHT22;28063;48.140;11.588;2022-08-21T03:30:17;15.30;99.90
42421;DHT22;28063;48.140;11.588;2022-08-21T03:32:44;15.30;99.90
42421;DHT22;28063;48.140;11.588;2022-08-21T03:35:09;15.30;99.90
42421;DHT22;28063;48.140;11.588;2022-08-21T03:37:35;15.30;99.90
42421;DHT22;28063;48.140;11.588;2022-08-21T03:40:03;15.30;99.90
42421;DHT22;28063;48.140;11.588;2022-08-21T03:42:29;15.30;99.90
42421;DHT22;28063;48.140;11.588;2022-08-21T03:44:55;15.30;99.90
42421;DHT22;28063;48.140;11.588;2022-08-21T03:47:20;15.30;99.90
42421;DHT22;28063;48.140;11.588;2022-08-21T03:49:47;15.20;99.90
42421;DHT22;28063;48.140;11.588;2022-08-21T03:52:13;15.20;99.90
42421;DHT22;28063;48.140;11.588;2022-08-21T03:54:39;15.20;99.90
42421;DHT22;28063;48.140;11.588;2022-08-21T03:57:07;15.20;99.90
42421;DHT22;28063;48.140;11.588;2022-08-21T03:59:34;15.20;99.90
42421;DHT22;28063;48.140;11.588;2022-08-21T04:02:02;15.10;99.90
42421;DHT22;28063;48.140;11.588;2022-08-21T04:04:29;15.10;99.90
42421;DHT22;28063;48.140;11.588;2022-08-21T04:06:56;15.10;99.90
42421;DHT22;28063;48.140;11.588;2022-08-21T04:09:22;15.10;99.90
42421;DHT22;28063;48.140;11.588;2022-08-21T04:11:48;15.10;99.90
42421;DHT22;28063;48.140;11.588;2022-08-21T04:14:14;15.00;99.90
42421;DHT22;28063;48.140;11.588;2022-08-21T04:16:41;15.10;99.90
42421;DHT22;28063;48.140;11.588;2022-08-21T04:19:07;15.00;99.90
42421;DHT22;28063;48.140;11.588;2022-08-21T04:21:33;15.00;99.90
42421;DHT22;28063;48.140;11.588;2022-08-21T04:23:59;15.00;99.90
42421;DHT22;28063;48.140;11.588;2022-08-21T04:26:25;15.10;99.90
42421;DHT22;28063;48.140;11.588;2022-08-21T04:28:52;15.10;99.90
42421;DHT22;28063;48.140;11.588;2022-08-21T04:31:18;15.10;99.90
42421;DHT22;28063;48.140;11.588;2022-08-21T04:33:44;15.10;99.90
42421;DHT22;28063;48.140;11.588;2022-08-21T04:36:10;15.10;99.90
42421;DHT22;28063;48.140;11.588;2022-08-21T04:38:36;15.10;99.90
42421;DHT22;28063;48.140;11.588;2022-08-21T04:41:02;15.10;99.90
42421;DHT22;28063;48.140;11.588;2022-08-21T04:43:28;15.10;99.90
42421;DHT22;28063;48.140;11.588;2022-08-21T04:45:54;15.10;99.90
42421;DHT22;28063;48.140;11.588;2022-08-21T04:48:22;15.10;99.90
42421;DHT22;28063;48.140;11.588;2022-08-21T04:51:02;15.20;99.90
42421;DHT22;28063;48.140;11.588;2022-08-21T04:56:26;15.10;99.90
42421;DHT22;28063;48.140;11.588;2022-08-21T04:58:57;15.10;99.90
42421;DHT22;28063;48.140;11.588;2022-08-21T05:01:25;15.20;99.90
42421;DHT22;28063;48.140;11.588;2022-08-21T05:03:55;15.20;99.90
42421;DHT22;28063;48.140;11.588;2022-08-21T05:06:22;15.30;99.90
42421;DHT22;28063;48.140;11.588;2022-08-21T05:08:51;15.30;99.90
42421;DHT22;28063;48.140;11.588;2022-08-21T05:11:18;15.40;99.90
42421;DHT22;28063;48.140;11.588;2022-08-21T05:13:45;15.50;99.90
42421;DHT22;28063;48.140;11.588;2022-08-21T05:16:11;15.60;99.90
42421;DHT22;28063;48.140;11.588;2022-08-21T05:18:37;15.60;99.90
42421;DHT22;28063;48.140;11.588;2022-08-21T05:21:03;15.70;99.90
42421;DHT22;28063;48.140;11.588;2022-08-21T05:23:29;15.80;99.90
42421;DHT22;28063;48.140;11.588;2022-08-21T05:25:55;15.80;99.90
42421;DHT22;28063;48.140;11.588;2022-08-21T05:28:21;15.90;99.90
42421;DHT22;28063;48.140;11.588;2022-08-21T05:30:47;16.00;99.90
42421;DHT22;28063;48.140;11.588;2022-08-21T05:33:13;15.90;99.90
42421;DHT22;28063;48.140;11.588;2022-08-21T05:35:43;15.90;99.90
42421;DHT22;28063;48.140;11.588;2022-08-21T05:38:09;16.00;99.90
42421;DHT22;28063;48.140;11.588;2022-08-21T05:40:35;16.00;99.90
42421;DHT22;28063;48.140;11.588;2022-08-21T05:43:01;16.00;99.90
42421;DHT22;28063;48.140;11.588;2022-08-21T05:45:30;16.00;99.90
42421;DHT22;28063;48.140;11.588;2022-08-21T05:47:56;16.10;99.90
42421;DHT22;28063;48.140;11.588;2022-08-21T05:50:21;16.10;99.90
42421;DHT22;28063;48.140;11.588;2022-08-21T05:52:47;16.10;99.90
42421;DHT22;28063;48.140;11.588;2022-08-21T05:55:13;16.20;99.90
42421;DHT22;28063;48.140;11.588;2022-08-21T05:57:39;16.20;99.90
42421;DHT22;28063;48.140;11.588;2022-08-21T06:00:07;16.20;99.90
42421;DHT22;28063;48.140;11.588;2022-08-21T06:02:35;16.30;99.90
42421;DHT22;28063;48.140;11.588;2022-08-21T06:05:01;16.30;99.90
42421;DHT22;28063;48.140;11.588;2022-08-21T06:07:27;16.40;99.90
42421;DHT22;28063;48.140;11.588;2022-08-21T06:09:54;16.50;99.90
42421;DHT22;28063;48.140;11.588;2022-08-21T06:12:19;16.50;99.90
42421;DHT22;28063;48.140;11.588;2022-08-21T06:14:45;16.60;99.90
42421;DHT22;28063;48.140;11.588;2022-08-21T06:17:12;16.70;99.90
42421;DHT22;28063;48.140;11.588;2022-08-21T06:19:39;16.70;99.90
42421;DHT22;28063;48.140;11.588;2022-08-21T06:22:04;16.80;99.90
42421;DHT22;28063;48.140;11.588;2022-08-21T06:24:31;16.90;99.90
42421;DHT22;28063;48.140;11.588;2022-08-21T06:26:56;17.00;99.90
42421;DHT22;28063;48.140;11.588;2022-08-21T06:29:23;17.30;99.90
42421;DHT22;28063;48.140;11.588;2022-08-21T06:31:50;19.60;99.90
42421;DHT22;28063;48.140;11.588;2022-08-21T06:34:17;22.90;99.90
42421;DHT22;28063;48.140;11.588;2022-08-21T06:39:09;26.90;99.90
42421;DHT22;28063;48.140;11.588;2022-08-21T06:41:34;27.90;98.60
42421;DHT22;28063;48.140;11.588;2022-08-21T06:44:00;28.60;95.90
42421;DHT22;28063;48.140;11.588;2022-08-21T06:46:28;28.90;94.80
42421;DHT22;28063;48.140;11.588;2022-08-21T06:48:57;27.20;90.20
42421;DHT22;28063;48.140;11.588;2022-08-21T06:51:24;24.90;92.70
42421;DHT22;28063;48.140;11.588;2022-08-21T06:53:51;23.20;94.20
42421;DHT22;28063;48.140;11.588;2022-08-21T06:56:17;21.70;95.60
42421;DHT22;28063;48.140;11.588;2022-08-21T06:58:43;20.50;99.90
42421;DHT22;28063;48.140;11.588;2022-08-21T07:01:09;19.70;99.90
42421;DHT22;28063;48.140;11.588;2022-08-21T07:03:40;19.10;99.90
42421;DHT22;28063;48.140;11.588;2022-08-21T07:06:08;18.80;99.90
42421;DHT22;28063;48.140;11.588;2022-08-21T07:08:34;18.60;99.90
42421;DHT22;28063;48.140;11.588;2022-08-21T07:11:02;18.40;99.90
42421;DHT22;28063;48.140;11.588;2022-08-21T07:13:28;18.30;99.90
42421;DHT22;28063;48.140;11.588;2022-08-21T07:15:54;18.30;99.90
42421;DHT22;28063;48.140;11.588;2022-08-21T07:18:20;18.30;99.90
42421;DHT22;28063;48.140;11.588;2022-08-21T07:20:46;18.30;99.90
42421;DHT22;28063;48.140;11.588;2022-08-21T07:23:27;18.40;99.90
42421;DHT22;28063;48.140;11.588;2022-08-21T07:25:53;18.40;99.90
42421;DHT22;28063;48.140;11.588;2022-08-21T07:28:19;18.40;99.90
42421;DHT22;28063;48.140;11.588;2022-08-21T07:30:45;18.50;99.90
42421;DHT22;28063;48.140;11.588;2022-08-21T07:33:12;18.60;99.90
42421;DHT22;28063;48.140;11.588;2022-08-21T07:35:38;18.70;99.90
42421;DHT22;28063;48.140;11.588;2022-08-21T07:38:04;18.70;99.90
42421;DHT22;28063;48.140;11.588;2022-08-21T07:40:29;18.90;99.90
42421;DHT22;28063;48.140;11.588;2022-08-21T07:42:55;18.90;99.90
42421;DHT22;28063;48.140;11.588;2022-08-21T07:45:22;19.00;99.90
42421;DHT22;28063;48.140;11.588;2022-08-21T07:47:55;19.10;99.90
42421;DHT22;28063;48.140;11.588;2022-08-21T07:50:20;19.20;99.90
42421;DHT22;28063;48.140;11.588;2022-08-21T07:52:46;19.30;99.90
42421;DHT22;28063;48.140;11.588;2022-08-21T07:55:15;19.50;99.90
42421;DHT22;28063;48.140;11.588;2022-08-21T07:57:41;19.70;99.10
42421;DHT22;28063;48.140;11.588;2022-08-21T08:00:10;19.80;98.70
42421;DHT22;28063;48.140;11.588;2022-08-21T08:02:36;20.00;94.80
42421;DHT22;28063;48.140;11.588;2022-08-21T08:05:04;20.10;96.70
42421;DHT22;28063;48.140;11.588;2022-08-21T08:07:30;20.20;96.90
42421;DHT22;28063;48.140;11.588;2022-08-21T08:09:56;20.40;97.10
42421;DHT22;28063;48.140;11.588;2022-08-21T08:12:21;20.60;94.70
42421;DHT22;28063;48.140;11.588;2022-08-21T08:14:47;20.80;92.20
42421;DHT22;28063;48.140;11.588;2022-08-21T08:17:13;20.90;91.50
42421;DHT22;28063;48.140;11.588;2022-08-21T08:19:39;21.00;91.70
42421;DHT22;28063;48.140;11.588;2022-08-21T08:22:16;21.30;90.00
42421;DHT22;28063;48.140;11.588;2022-08-21T08:24:45;21.40;87.00
42421;DHT22;28063;48.140;11.588;2022-08-21T08:27:10;21.40;86.30
42421;DHT22;28063;48.140;11.588;2022-08-21T08:29:37;21.50;86.30
42421;DHT22;28063;48.140;11.588;2022-08-21T08:32:04;21.70;84.50
42421;DHT22;28063;48.140;11.588;2022-08-21T08:34:33;21.70;83.00
42421;DHT22;28063;48.140;11.588;2022-08-21T08:36:58;21.80;83.30
42421;DHT22;28063;48.140;11.588;2022-08-21T08:39:25;22.00;82.70
42421;DHT22;28063;48.140;11.588;2022-08-21T08:42:02;22.00;82.70
42421;DHT22;28063;48.140;11.588;2022-08-21T08:44:29;22.10;83.50
42421;DHT22;28063;48.140;11.588;2022-08-21T08:46:56;22.30;82.60
42421;DHT22;28063;48.140;11.588;2022-08-21T08:52:05;22.70;79.10
42421;DHT22;28063;48.140;11.588;2022-08-21T08:54:52;22.70;78.80
42421;DHT22;28063;48.140;11.588;2022-08-21T08:57:23;22.70;79.30
42421;DHT22;28063;48.140;11.588;2022-08-21T08:59:52;22.80;78.00
42421;DHT22;28063;48.140;11.588;2022-08-21T09:02:20;22.90;77.40
42421;DHT22;28063;48.140;11.588;2022-08-21T09:04:49;23.00;78.00
42421;DHT22;28063;48.140;11.588;2022-08-21T09:18:08;23.70;74.60
42421;DHT22;28063;48.140;11.588;2022-08-21T09:26:21;23.90;74.00
42421;DHT22;28063;48.140;11.588;2022-08-21T09:28:53;24.00;72.30
42421;DHT22;28063;48.140;11.588;2022-08-21T09:31:25;24.00;73.20
42421;DHT22;28063;48.140;11.588;2022-08-21T09:33:58;24.20;74.00
42421;DHT22;28063;48.140;11.588;2022-08-21T09:36:30;24.50;72.40
42421;DHT22;28063;48.140;11.588;2022-08-21T09:38:56;24.60;71.30
42421;DHT22;28063;48.140;11.588;2022-08-21T09:41:28;24.70;70.60
42421;DHT22;28063;48.140;11.588;2022-08-21T09:43:54;25.00;71.10
42421;DHT22;28063;48.140;11.588;2022-08-21T09:46:22;25.40;69.50
42421;DHT22;28063;48.140;11.588;2022-08-21T09:48:51;25.70;67.80
42421;DHT22;28063;48.140;11.588;2022-08-21T09:51:21;25.70;67.20
42421;DHT22;28063;48.140;11.588;2022-08-21T09:59:26;25.00;68.10
42421;DHT22;28063;48.140;11.588;2022-08-21T10:01:54;24.60;70.00
42421;DHT22;28063;48.140;11.588;2022-08-21T10:04:27;24.30;72.10
42421;DHT22;28063;48.140;11.588;2022-08-21T10:06:53;24.00;73.20
42421;DHT22;28063;48.140;11.588;2022-08-21T10:09:20;23.60;74.30
42421;DHT22;28063;48.140;11.588;2022-08-21T10:11:51;23.60;75.30
42421;DHT22;28063;48.140;11.588;2022-08-21T10:14:28;24.10;75.00
42421;DHT22;28063;48.140;11.588;2022-08-21T10:17:29;24.90;73.00
42421;DHT22;28063;48.140;11.588;2022-08-21T10:20:17;25.80;68.90
42421;DHT22;28063;48.140;11.588;2022-08-21T10:23:21;26.10;67.80
42421;DHT22;28063;48.140;11.588;2022-08-21T10:30:14;25.60;66.00
42421;DHT22;28063;48.140;11.588;2022-08-21T10:36:39;24.70;69.00
42421;DHT22;28063;48.140;11.588;2022-08-21T10:52:29;23.20;75.60
42421;DHT22;28063;48.140;11.588;2022-08-21T10:55:22;23.10;76.20
42421;DHT22;28063;48.140;11.588;2022-08-21T10:58:08;23.40;76.60
42421;DHT22;28063;48.140;11.588;2022-08-21T11:00:47;24.40;75.40
42421;DHT22;28063;48.140;11.588;2022-08-21T11:03:33;25.20;72.60
42421;DHT22;28063;48.140;11.588;2022-08-21T11:06:08;25.80;71.30
42421;DHT22;28063;48.140;11.588;2022-08-21T11:08:42;25.70;69.10
42421;DHT22;28063;48.140;11.588;2022-08-21T11:16:23;24.70;68.20
42421;DHT22;28063;48.140;11.588;2022-08-21T11:24:47;24.70;69.30
42421;DHT22;28063;48.140;11.588;2022-08-21T11:29:55;24.70;70.50
42421;DHT22;28063;48.140;11.588;2022-08-21T11:41:16;23.60;76.60
42421;DHT22;28063;48.140;11.588;2022-08-21T11:46:21;24.10;73.90
42421;DHT22;28063;48.140;11.588;2022-08-21T11:48:58;24.60;71.70
42421;DHT22;28063;48.140;11.588;2022-08-21T11:51:33;25.10;69.80
42421;DHT22;28063;48.140;11.588;2022-08-21T11:56:37;26.10;64.30
42421;DHT22;28063;48.140;11.588;2022-08-21T11:59:29;25.90;63.50
42421;DHT22;28063;48.140;11.588;2022-08-21T12:01:58;25.60;65.80
42421;DHT22;28063;48.140;11.588;2022-08-21T12:04:30;25.20;63.60
42421;DHT22;28063;48.140;11.588;2022-08-21T12:07:32;25.00;64.00
42421;DHT22;28063;48.140;11.588;2022-08-21T12:09:57;24.90;62.70
42421;DHT22;28063;48.140;11.588;2022-08-21T12:12:30;25.10;57.00
42421;DHT22;28063;48.140;11.588;2022-08-21T12:18:22;24.60;60.80
42421;DHT22;28063;48.140;11.588;2022-08-21T12:21:04;24.40;61.40
42421;DHT22;28063;48.140;11.588;2022-08-21T12:26:18;25.40;58.80
42421;DHT22;28063;48.140;11.588;2022-08-21T12:28:45;26.30;54.10
42421;DHT22;28063;48.140;11.588;2022-08-21T12:31:25;26.80;54.50
42421;DHT22;28063;48.140;11.588;2022-08-21T12:33:55;27.10;54.80
42421;DHT22;28063;48.140;11.588;2022-08-21T12:36:25;27.20;51.20
42421;DHT22;28063;48.140;11.588;2022-08-21T12:38:57;27.40;51.60
42421;DHT22;28063;48.140;11.588;2022-08-21T12:44:42;28.20;50.50
42421;DHT22;28063;48.140;11.588;2022-08-21T12:50:03;28.50;49.20
42421;DHT22;28063;48.140;11.588;2022-08-21T12:52:40;28.90;48.80
42421;DHT22;28063;48.140;11.588;2022-08-21T12:55:11;29.20;49.00
42421;DHT22;28063;48.140;11.588;2022-08-21T12:57:40;29.00;49.00
42421;DHT22;28063;48.140;11.588;2022-08-21T13:00:09;28.70;49.70
42421;DHT22;28063;48.140;11.588;2022-08-21T13:02:43;28.30;49.70
42421;DHT22;28063;48.140;11.588;2022-08-21T13:05:24;27.40;51.80
42421;DHT22;28063;48.140;11.588;2022-08-21T13:07:50;26.70;52.80
42421;DHT22;28063;48.140;11.588;2022-08-21T13:10:26;26.00;54.80
42421;DHT22;28063;48.140;11.588;2022-08-21T13:12:58;25.60;56.10
42421;DHT22;28063;48.140;11.588;2022-08-21T13:15:28;25.50;57.10
42421;DHT22;28063;48.140;11.588;2022-08-21T13:17:54;25.40;57.70
42421;DHT22;28063;48.140;11.588;2022-08-21T13:20:30;25.30;58.20
42421;DHT22;28063;48.140;11.588;2022-08-21T13:22:56;25.20;57.90
42421;DHT22;28063;48.140;11.588;2022-08-21T13:25:27;25.20;58.50
42421;DHT22;28063;48.140;11.588;2022-08-21T13:28:09;25.30;59.30
42421;DHT22;28063;48.140;11.588;2022-08-21T13:30:43;25.40;58.70
42421;DHT22;28063;48.140;11.588;2022-08-21T13:33:13;25.50;58.20
42421;DHT22;28063;48.140;11.588;2022-08-21T13:35:56;25.60;57.70
42421;DHT22;28063;48.140;11.588;2022-08-21T13:38:29;25.60;57.40
42421;DHT22;28063;48.140;11.588;2022-08-21T13:40:59;25.90;56.00
42421;DHT22;28063;48.140;11.588;2022-08-21T13:43:31;26.30;54.90
42421;DHT22;28063;48.140;11.588;2022-08-21T13:45:58;26.10;55.80
42421;DHT22;28063;48.140;11.588;2022-08-21T13:48:28;25.80;56.90
42421;DHT22;28063;48.140;11.588;2022-08-21T13:50:55;25.60;57.90
42421;DHT22;28063;48.140;11.588;2022-08-21T13:55:59;26.10;57.30
42421;DHT22;28063;48.140;11.588;2022-08-21T13:58:27;26.40;55.10
42421;DHT22;28063;48.140;11.588;2022-08-21T14:00:54;26.00;54.30
42421;DHT22;28063;48.140;11.588;2022-08-21T14:03:36;25.70;53.90
42421;DHT22;28063;48.140;11.588;2022-08-21T14:06:12;25.60;56.00
42421;DHT22;28063;48.140;11.588;2022-08-21T14:08:39;25.90;55.20
42421;DHT22;28063;48.140;11.588;2022-08-21T14:11:11;26.50;53.90
42421;DHT22;28063;48.140;11.588;2022-08-21T14:14:01;27.10;52.80
42421;DHT22;28063;48.140;11.588;2022-08-21T14:16:42;27.60;52.40
42421;DHT22;28063;48.140;11.588;2022-08-21T14:21:44;28.50;50.10
42421;DHT22;28063;48.140;11.588;2022-08-21T14:24:24;28.40;50.40
42421;DHT22;28063;48.140;11.588;2022-08-21T14:27:03;28.20;49.90
42421;DHT22;28063;48.140;11.588;2022-08-21T14:29:34;27.50;50.50
42421;DHT22;28063;48.140;11.588;2022-08-21T14:32:30;27.10;51.30
42421;DHT22;28063;48.140;11.588;2022-08-21T14:34:55;27.10;51.10
42421;DHT22;28063;48.140;11.588;2022-08-21T14:37:22;27.40;51.20
42421;DHT22;28063;48.140;11.588;2022-08-21T14:52:00;25.30;54.10
42421;DHT22;28063;48.140;11.588;2022-08-21T14:54:28;25.40;55.00
42421;DHT22;28063;48.140;11.588;2022-08-21T14:56:54;25.40;54.10
42421;DHT22;28063;48.140;11.588;2022-08-21T14:59:21;25.20;54.50
42421;DHT22;28063;48.140;11.588;2022-08-21T15:01:47;24.90;55.40
42421;DHT22;28063;48.140;11.588;2022-08-21T15:04:12;24.80;56.10
42421;DHT22;28063;48.140;11.588;2022-08-21T15:06:38;25.40;55.60
42421;DHT22;28063;48.140;11.588;2022-08-21T15:09:04;26.10;54.60
42421;DHT22;28063;48.140;11.588;2022-08-21T15:11:32;26.50;53.30
42421;DHT22;28063;48.140;11.588;2022-08-21T15:14:01;26.70;52.40
42421;DHT22;28063;48.140;11.588;2022-08-21T15:16:28;27.00;52.70
42421;DHT22;28063;48.140;11.588;2022-08-21T15:18:54;27.30;51.80
42421;DHT22;28063;48.140;11.588;2022-08-21T15:21:20;27.30;51.80
42421;DHT22;28063;48.140;11.588;2022-08-21T15:23:45;27.40;51.10
42421;DHT22;28063;48.140;11.588;2022-08-21T15:26:11;27.30;50.40
42421;DHT22;28063;48.140;11.588;2022-08-21T15:28:37;26.80;51.00
42421;DHT22;28063;48.140;11.588;2022-08-21T15:31:04;26.50;51.80
42421;DHT22;28063;48.140;11.588;2022-08-21T15:33:30;26.40;52.20
42421;DHT22;28063;48.140;11.588;2022-08-21T15:35:56;26.00;53.40
42421;DHT22;28063;48.140;11.588;2022-08-21T15:38:22;25.80;53.00
42421;DHT22;28063;48.140;11.588;2022-08-21T15:40:48;25.40;53.10
42421;DHT22;28063;48.140;11.588;2022-08-21T15:43:29;25.30;54.30
42421;DHT22;28063;48.140;11.588;2022-08-21T15:45:55;25.50;53.20
42421;DHT22;28063;48.140;11.588;2022-08-21T15:48:21;25.60;53.10
42421;DHT22;28063;48.140;11.588;2022-08-21T15:50:47;25.70;53.50
42421;DHT22;28063;48.140;11.588;2022-08-21T15:53:13;25.80;51.30
42421;DHT22;28063;48.140;11.588;2022-08-21T15:55:40;25.70;51.50
42421;DHT22;28063;48.140;11.588;2022-08-21T15:58:06;25.70;51.70
42421;DHT22;28063;48.140;11.588;2022-08-21T16:00:34;25.60;51.00
42421;DHT22;28063;48.140;11.588;2022-08-21T16:03:04;25.60;51.30
42421;DHT22;28063;48.140;11.588;2022-08-21T16:05:31;25.60;51.50
42421;DHT22;28063;48.140;11.588;2022-08-21T16:07:58;25.50;51.90
42421;DHT22;28063;48.140;11.588;2022-08-21T16:10:24;25.40;52.10
42421;DHT22;28063;48.140;11.588;2022-08-21T16:12:55;25.40;51.30
42421;DHT22;28063;48.140;11.588;2022-08-21T16:15:22;25.40;51.20
42421;DHT22;28063;48.140;11.588;2022-08-21T16:17:49;25.50;51.00
42421;DHT22;28063;48.140;11.588;2022-08-21T16:20:25;25.40;51.10
42421;DHT22;28063;48.140;11.588;2022-08-21T16:22:53;25.40;51.30
42421;DHT22;28063;48.140;11.588;2022-08-21T16:25:20;25.30;51.60
42421;DHT22;28063;48.140;11.588;2022-08-21T16:27:52;25.30;51.20
42421;DHT22;28063;48.140;11.588;2022-08-21T16:30:20;25.30;50.80
42421;DHT22;28063;48.140;11.588;2022-08-21T16:32:47;25.10;50.60
42421;DHT22;28063;48.140;11.588;2022-08-21T16:35:16;25.10;52.00
42421;DHT22;28063;48.140;11.588;2022-08-21T16:37:42;25.00;53.90
42421;DHT22;28063;48.140;11.588;2022-08-21T16:40:09;24.90;52.30
42421;DHT22;28063;48.140;11.588;2022-08-21T16:42:37;24.80;52.10
42421;DHT22;28063;48.140;11.588;2022-08-21T16:45:06;24.70;52.80
42421;DHT22;28063;48.140;11.588;2022-08-21T16:47:33;24.70;52.00
42421;DHT22;28063;48.140;11.588;2022-08-21T16:49:59;24.60;52.20
42421;DHT22;28063;48.140;11.588;2022-08-21T16:52:25;24.60;52.60
42421;DHT22;28063;48.140;11.588;2022-08-21T16:54:51;24.50;53.30
42421;DHT22;28063;48.140;11.588;2022-08-21T16:57:16;24.40;54.00
42421;DHT22;28063;48.140;11.588;2022-08-21T16:59:42;24.30;54.50
42421;DHT22;28063;48.140;11.588;2022-08-21T17:02:24;24.20;55.00
42421;DHT22;28063;48.140;11.588;2022-08-21T17:04:52;24.10;55.20
42421;DHT22;28063;48.140;11.588;2022-08-21T17:07:21;24.00;55.30
42421;DHT22;28063;48.140;11.588;2022-08-21T17:09:47;23.90;55.40
42421;DHT22;28063;48.140;11.588;2022-08-21T17:12:14;23.80;55.80
42421;DHT22;28063;48.140;11.588;2022-08-21T17:14:40;23.80;56.10
42421;DHT22;28063;48.140;11.588;2022-08-21T17:17:07;23.70;57.60
42421;DHT22;28063;48.140;11.588;2022-08-21T17:19:33;23.60;57.20
42421;DHT22;28063;48.140;11.588;2022-08-21T17:22:00;23.60;56.90
42421;DHT22;28063;48.140;11.588;2022-08-21T17:24:25;23.50;56.80
42421;DHT22;28063;48.140;11.588;2022-08-21T17:26:52;23.30;56.90
42421;DHT22;28063;48.140;11.588;2022-08-21T17:29:25;23.30;56.40
42421;DHT22;28063;48.140;11.588;2022-08-21T17:31:55;23.20;56.20
42421;DHT22;28063;48.140;11.588;2022-08-21T17:34:22;23.20;56.50
42421;DHT22;28063;48.140;11.588;2022-08-21T17:36:47;23.10;57.00
42421;DHT22;28063;48.140;11.588;2022-08-21T17:39:13;23.00;56.70
42421;DHT22;28063;48.140;11.588;2022-08-21T17:41:41;22.90;57.00
42421;DHT22;28063;48.140;11.588;2022-08-21T17:44:10;22.90;57.60
42421;DHT22;28063;48.140;11.588;2022-08-21T17:46:37;22.70;57.80
42421;DHT22;28063;48.140;11.588;2022-08-21T17:49:06;22.70;57.90
42421;DHT22;28063;48.140;11.588;2022-08-21T17:51:32;22.60;58.30
42421;DHT22;28063;48.140;11.588;2022-08-21T17:53:58;22.50;59.00